createdAt,value
2023-01-28T00:00:25.253Z,102520.86
2023-01-28T00:04:53.357Z,102515.98
2023-01-28T00:09:22.861Z,102516.19
2023-01-28T00:13:50.662Z,102517.40
2023-01-28T00:18:20.535Z,102518.66
2023-01-28T00:48:53.415Z,102525.13
2023-01-28T00:53:22.570Z,102530.61
2023-01-28T00:57:50.772Z,102524.13
2023-01-28T01:02:21.449Z,102522.98
2023-01-28T01:06:39.591Z,102519.52
2023-01-28T01:27:39.081Z,102527.66
2023-01-28T01:32:08.429Z,102525.39
2023-01-28T01:36:23.929Z,102528.55
2023-01-28T02:06:53.164Z,102523.63
2023-01-28T02:11:22.341Z,102521.69
2023-01-28T02:15:41.196Z,102514.17
2023-01-28T02:19:53.308Z,102518.48
2023-01-28T02:28:31.351Z,102515.56
2023-01-28T02:33:18.828Z,102519.42
2023-01-28T02:37:57.121Z,102521.55
2023-01-28T02:42:39.636Z,102521.23
2023-01-28T03:08:29.578Z,102508.30
2023-01-28T03:12:39.744Z,102504.58
2023-01-28T03:17:07.080Z,102506.48
2023-01-28T03:21:46.458Z,102510.12
2023-01-28T03:26:14.053Z,102508.73
2023-01-28T03:30:31.611Z,102509.95
2023-01-28T03:34:42.257Z,102506.77
2023-01-28T03:39:19.016Z,102512.14
2023-01-28T05:27:05.585Z,102513.45
2023-01-28T05:31:34.554Z,102508.90
2023-01-28T05:35:49.803Z,102506.98
2023-01-28T05:40:02.228Z,102504.20
2023-01-28T05:44:03.988Z,102502.81
2023-01-28T05:48:33.218Z,102502.47
2023-01-28T06:17:50.035Z,102504.96
2023-01-28T06:22:12.151Z,102504.25
2023-01-28T06:26:26.626Z,102504.91
2023-01-28T06:30:30.030Z,102511.53
2023-01-28T06:34:06.432Z,102507.17
2023-01-28T06:37:40.102Z,102505.61
2023-01-28T06:41:31.592Z,102510.16
2023-01-28T06:45:38.689Z,102514.31
2023-01-28T06:49:50.682Z,102521.99
2023-01-28T06:54:01.893Z,102524.61
2023-01-28T06:57:55.093Z,102515.90
2023-01-28T07:01:46.624Z,102521.33
2023-01-28T07:05:26.644Z,102522.70
2023-01-28T07:09:31.124Z,102527.08
2023-01-28T07:13:29.868Z,102519.56
2023-01-28T07:17:42.622Z,102523.03
2023-01-28T07:22:04.054Z,102524.98
2023-01-28T07:26:08.575Z,102527.27
2023-01-28T07:30:08.070Z,102530.61
2023-01-28T07:33:54.099Z,102530.45
2023-01-28T08:10:51.704Z,102553.02
2023-01-28T08:15:00.787Z,102549.15
2023-01-28T08:36:16.765Z,102563.98
2023-01-28T08:40:46.243Z,102569.88
2023-01-28T08:45:13.003Z,102567.00
2023-01-28T08:49:31.767Z,102569.42
2023-01-28T08:53:54.377Z,102574.11
2023-01-28T08:58:03.414Z,102585.27
2023-01-28T09:48:53.938Z,102601.74
2023-01-28T09:53:14.699Z,102606.38
2023-01-28T09:57:46.936Z,102609.54
2023-01-28T10:02:35.390Z,102605.38
2023-01-28T10:20:17.737Z,102601.16
2023-01-28T10:24:40.138Z,102600.34
2023-01-28T10:45:15.826Z,102588.11
2023-01-28T10:50:01.207Z,102583.58
2023-01-28T10:54:36.107Z,102577.09
2023-01-28T10:59:05.583Z,102577.92
2023-01-28T11:03:27.675Z,102571.09
2023-01-28T11:07:59.642Z,102570.91
2023-01-28T11:25:46.577Z,102558.11
2023-01-28T11:38:52.030Z,102544.38
2023-01-28T11:43:21.380Z,102539.50
2023-01-28T11:47:46.360Z,102541.28
2023-01-28T12:41:44.743Z,102492.20
2023-01-28T12:46:25.921Z,102484.88
2023-01-28T12:50:55.613Z,102491.17
2023-01-28T12:55:22.877Z,102487.35
2023-01-28T12:59:56.507Z,102483.52
2023-01-28T13:21:34.643Z,102474.48
2023-01-28T13:26:10.194Z,102466.26
2023-01-28T13:30:41.198Z,102461.18
2023-01-28T13:35:13.413Z,102457.52
2023-01-28T13:39:55.537Z,102447.02
2023-01-28T14:00:48.078Z,102429.15
2023-01-28T14:05:30.233Z,102436.50
2023-01-28T14:09:31.895Z,102426.86
2023-01-28T14:14:19.206Z,102410.93
2023-01-28T14:18:44.040Z,102428.46
2023-01-28T14:23:01.344Z,102452.61
2023-01-28T14:27:49.960Z,102447.34
2023-01-28T15:29:47.497Z,102473.05
2023-01-28T15:34:09.790Z,102481.52
2023-01-28T15:55:52.616Z,102495.05
2023-01-28T16:00:29.487Z,102507.57
2023-01-28T16:05:04.995Z,102504.15
2023-01-28T16:09:37.018Z,102478.54
2023-01-28T16:14:08.687Z,102478.04
2023-01-28T16:18:31.964Z,102492.33
2023-01-28T16:36:08.390Z,102500.76
2023-01-28T16:40:39.121Z,102499.54
2023-01-28T17:03:25.613Z,102508.23
2023-01-28T17:07:55.255Z,102524.31
2023-01-28T17:12:16.560Z,102535.24
2023-01-28T17:33:48.570Z,102521.70
2023-01-28T17:38:19.219Z,102505.60
2023-01-28T17:42:41.056Z,102502.52
2023-01-28T17:59:47.199Z,102479.44
2023-01-28T18:04:16.474Z,102472.02
2023-01-28T18:08:46.283Z,102476.47
2023-01-28T18:13:15.663Z,102504.63
2023-01-28T18:31:39.801Z,102482.75
2023-01-28T18:35:43.703Z,102482.88
2023-01-28T18:40:13.201Z,102482.67
2023-01-28T18:44:34.236Z,102472.48
2023-01-28T19:10:25.701Z,102478.69
2023-01-28T19:14:47.053Z,102490.91
2023-01-28T19:19:19.156Z,102501.06
2023-01-28T19:23:50.161Z,102500.77
2023-01-28T19:32:11.918Z,102506.79
2023-01-28T19:36:41.548Z,102505.53
2023-01-28T19:41:11.549Z,102514.31
2023-01-28T19:51:50.009Z,102527.79
2023-01-28T19:56:19.542Z,102522.12
2023-01-28T20:00:53.277Z,102516.45
2023-01-28T20:19:30.768Z,102477.67
2023-01-28T20:24:00.320Z,102471.73
2023-01-28T20:28:20.912Z,102476.61
2023-01-28T20:49:27.163Z,102459.10
2023-01-28T20:53:57.814Z,102452.95
2023-01-28T20:58:28.103Z,102462.19
2023-01-28T21:02:54.881Z,102459.50
2023-01-28T21:27:04.651Z,102454.11
2023-01-28T21:31:14.749Z,102444.08
2023-01-28T21:39:32.343Z,102443.23
2023-01-28T21:44:02.140Z,102447.47
2023-01-28T21:48:24.550Z,102444.42
2023-01-28T22:12:22.749Z,102425.77
2023-01-28T22:16:53.261Z,102418.79
2023-01-28T22:42:52.760Z,102397.66
2023-01-28T22:47:22.251Z,102395.70
2023-01-28T22:52:00.262Z,102373.89
2023-01-28T22:56:31.747Z,102361.98
2023-01-28T23:22:20.617Z,102355.16
2023-01-28T23:26:49.935Z,102350.46
2023-01-28T23:31:20.550Z,102346.84
2023-01-28T23:48:40.682Z,102313.30
2023-01-28T23:53:09.854Z,102302.38
2023-01-28T23:57:38.974Z,102297.71
